Time;durP1;ratioP1;P1;durP2;ratioP2;P2;SDS_P1;SDS_P2;PMS_P1;PMS_P2;Temp;Humidity;BMP_temperature;BMP_pressure;BME280_temperature;BME280_humidity;BME280_pressure;Samples;Min_cycle;Max_cycle;Signal;HPM_P1;HPM_P2
2023/01/07 00:00:53;;;;;;;;;;;12.10;99.90;;;;;;5072275;28;20030;-67
2023/01/07 00:03:19;;;;;;;;;;;12.10;99.90;;;;;;5091318;28;20423;-67
2023/01/07 00:05:44;;;;;;;;;;;12.10;99.90;;;;;;5088031;28;19970;-69
2023/01/07 00:08:10;;;;;;;;;;;12.10;99.90;;;;;;5088087;28;20002;-67
2023/01/07 00:10:36;;;;;;;;;;;12.00;99.90;;;;;;5089364;28;19999;-68
2023/01/07 00:13:01;;;;;;;;;;;12.00;99.90;;;;;;5088983;28;20033;-67
2023/01/07 00:15:27;;;;;;;;;;;12.00;99.90;;;;;;5095777;28;19916;-68
2023/01/07 00:17:53;;;;;;;;;;;11.90;99.90;;;;;;5106742;28;20320;-68
2023/01/07 00:20:18;;;;;;;;;;;12.00;99.90;;;;;;5094344;28;19912;-66
2023/01/07 00:22:44;;;;;;;;;;;12.00;99.90;;;;;;5098359;28;19965;-68
2023/01/07 00:25:09;;;;;;;;;;;12.00;99.90;;;;;;5093007;28;19927;-67
2023/01/07 00:27:35;;;;;;;;;;;12.00;99.90;;;;;;5104068;28;20179;-68
2023/01/07 00:30:01;;;;;;;;;;;11.90;99.90;;;;;;5069011;28;19916;-67
2023/01/07 00:35:21;;;;;;;;;;;11.90;99.90;;;;;;5091005;28;20392;-67
2023/01/07 00:37:51;;;;;;;;;;;11.90;99.90;;;;;;5096844;28;19916;-66
2023/01/07 00:40:16;;;;;;;;;;;12.00;99.90;;;;;;5086073;28;19912;-66
2023/01/07 00:42:56;;;;;;;;;;;12.00;99.90;;;;;;5088748;28;20592;-67
2023/01/07 00:45:23;;;;;;;;;;;11.90;99.90;;;;;;5088300;28;19982;-66
2023/01/07 00:47:52;;;;;;;;;;;11.90;99.90;;;;;;5088758;28;19917;-68
2023/01/07 00:50:22;;;;;;;;;;;12.00;99.90;;;;;;5072273;28;20312;-67
2023/01/07 00:52:47;;;;;;;;;;;11.90;99.90;;;;;;5095437;28;19911;-67
2023/01/07 00:55:13;;;;;;;;;;;11.90;99.90;;;;;;5078021;28;20106;-67
2023/01/07 00:57:40;;;;;;;;;;;11.80;99.90;;;;;;5093011;28;19922;-67
2023/01/07 01:00:06;;;;;;;;;;;11.90;99.90;;;;;;5107504;28;19947;-66
2023/01/07 01:02:32;;;;;;;;;;;11.90;99.90;;;;;;5087663;28;20346;-67
2023/01/07 01:04:57;;;;;;;;;;;11.80;99.90;;;;;;5077863;28;20033;-68
2023/01/07 01:07:23;;;;;;;;;;;12.00;99.90;;;;;;5095366;28;19971;-68
2023/01/07 01:09:48;;;;;;;;;;;11.90;99.90;;;;;;5073492;28;19996;-67
2023/01/07 01:12:14;;;;;;;;;;;11.90;99.90;;;;;;5084080;28;20006;-68
2023/01/07 01:14:39;;;;;;;;;;;11.80;99.90;;;;;;5104571;28;19973;-69
2023/01/07 01:17:05;;;;;;;;;;;11.80;99.90;;;;;;5103150;28;19954;-67
2023/01/07 01:19:30;;;;;;;;;;;11.80;99.90;;;;;;5106030;28;19931;-68
2023/01/07 01:21:56;;;;;;;;;;;11.80;99.90;;;;;;5101941;28;19939;-68
2023/01/07 01:24:21;;;;;;;;;;;11.80;99.90;;;;;;5099444;28;19973;-68
2023/01/07 01:26:47;;;;;;;;;;;11.90;99.90;;;;;;5102255;28;19912;-67
2023/01/07 01:29:13;;;;;;;;;;;11.90;99.90;;;;;;5103829;28;20280;-68
2023/01/07 01:31:38;;;;;;;;;;;12.00;99.90;;;;;;5101859;28;19941;-66
2023/01/07 01:34:04;;;;;;;;;;;12.00;99.90;;;;;;5095103;28;19959;-70
2023/01/07 01:36:29;;;;;;;;;;;12.10;99.90;;;;;;5106906;28;19930;-66
2023/01/07 01:38:56;;;;;;;;;;;12.10;99.90;;;;;;5092715;28;19923;-66
2023/01/07 01:41:22;;;;;;;;;;;12.00;99.90;;;;;;5085031;28;19920;-67
2023/01/07 01:43:47;;;;;;;;;;;11.90;99.90;;;;;;5103600;28;19912;-67
2023/01/07 01:46:13;;;;;;;;;;;12.00;99.90;;;;;;5100606;28;19912;-67
2023/01/07 01:48:42;;;;;;;;;;;12.00;99.90;;;;;;5091865;28;19911;-66
2023/01/07 01:51:08;;;;;;;;;;;12.00;99.90;;;;;;5097234;28;19916;-67
2023/01/07 01:53:34;;;;;;;;;;;12.00;99.90;;;;;;5102288;28;19920;-68
2023/01/07 01:56:00;;;;;;;;;;;12.00;99.90;;;;;;5091874;28;19920;-68
2023/01/07 01:58:35;;;;;;;;;;;11.90;99.90;;;;;;5090774;28;19919;-68
2023/01/07 02:01:00;;;;;;;;;;;11.90;99.90;;;;;;5094630;28;20002;-68
2023/01/07 02:03:27;;;;;;;;;;;11.90;99.90;;;;;;5100817;28;20465;-67
2023/01/07 02:05:53;;;;;;;;;;;11.80;99.90;;;;;;5104149;28;20116;-66
2023/01/07 02:08:21;;;;;;;;;;;11.80;99.90;;;;;;5090046;28;19991;-66
2023/01/07 02:10:47;;;;;;;;;;;11.80;99.90;;;;;;5094000;28;19972;-67
2023/01/07 02:13:31;;;;;;;;;;;11.70;99.90;;;;;;5101141;28;19915;-67
2023/01/07 02:15:57;;;;;;;;;;;11.80;99.90;;;;;;5087613;28;20363;-66
2023/01/07 02:18:35;;;;;;;;;;;11.70;99.90;;;;;;5100404;28;20014;-67
2023/01/07 02:21:00;;;;;;;;;;;11.80;99.90;;;;;;5103283;28;19957;-67
2023/01/07 02:23:38;;;;;;;;;;;11.70;99.90;;;;;;5090928;28;19920;-67
2023/01/07 02:26:10;;;;;;;;;;;11.70;99.90;;;;;;5091981;28;20416;-67
2023/01/07 02:28:58;;;;;;;;;;;11.70;99.90;;;;;;5091159;28;19912;-67
2023/01/07 02:31:43;;;;;;;;;;;11.70;99.90;;;;;;5089506;28;19916;-68
2023/01/07 02:34:08;;;;;;;;;;;11.60;99.90;;;;;;5098249;28;20010;-66
2023/01/07 02:36:34;;;;;;;;;;;11.80;99.90;;;;;;5088001;28;20380;-67
2023/01/07 02:39:08;;;;;;;;;;;11.80;99.90;;;;;;5085465;28;20397;-66
2023/01/07 02:41:37;;;;;;;;;;;11.90;99.90;;;;;;5084906;28;19920;-67
2023/01/07 02:44:02;;;;;;;;;;;11.90;99.90;;;;;;5086642;28;19934;-67
2023/01/07 02:47:06;;;;;;;;;;;11.90;99.90;;;;;;5085219;28;19912;-67
2023/01/07 02:49:33;;;;;;;;;;;12.00;99.90;;;;;;5025893;28;19913;-67
2023/01/07 02:52:14;;;;;;;;;;;11.80;99.90;;;;;;5013075;28;19913;-67
2023/01/07 02:54:40;;;;;;;;;;;11.80;99.90;;;;;;5067627;28;20016;-67
2023/01/07 02:57:13;;;;;;;;;;;11.90;99.90;;;;;;5083264;28;20014;-68
2023/01/07 02:59:39;;;;;;;;;;;11.90;99.90;;;;;;5091644;28;19912;-68
2023/01/07 03:02:05;;;;;;;;;;;11.90;99.90;;;;;;5102123;28;19919;-67
2023/01/07 03:04:30;;;;;;;;;;;11.90;99.90;;;;;;5095333;28;19935;-67
2023/01/07 03:07:05;;;;;;;;;;;11.90;99.90;;;;;;5097219;28;19927;-68
2023/01/07 03:09:36;;;;;;;;;;;11.90;99.90;;;;;;5084692;28;19920;-67
2023/01/07 03:12:02;;;;;;;;;;;11.90;99.90;;;;;;5088475;28;19963;-67
2023/01/07 03:14:37;;;;;;;;;;;11.90;99.90;;;;;;5101413;28;19924;-68
2023/01/07 03:17:05;;;;;;;;;;;11.90;99.90;;;;;;5096516;28;19923;-67
2023/01/07 03:19:31;;;;;;;;;;;11.90;99.90;;;;;;5067571;28;19927;-68
2023/01/07 03:21:58;;;;;;;;;;;12.00;99.90;;;;;;5098480;28;19972;-68
2023/01/07 03:24:24;;;;;;;;;;;12.00;99.90;;;;;;5096487;28;19911;-69
2023/01/07 03:26:51;;;;;;;;;;;12.10;99.90;;;;;;5094448;28;19912;-68
2023/01/07 03:29:18;;;;;;;;;;;11.90;99.90;;;;;;5083116;28;19919;-68
2023/01/07 03:31:58;;;;;;;;;;;11.90;99.90;;;;;;5097573;28;19912;-68
2023/01/07 03:34:25;;;;;;;;;;;11.90;99.90;;;;;;5095213;28;19913;-68
2023/01/07 03:36:52;;;;;;;;;;;11.90;99.90;;;;;;5098939;28;19921;-67
2023/01/07 03:39:19;;;;;;;;;;;11.90;99.90;;;;;;5082021;28;19919;-67
2023/01/07 03:44:32;;;;;;;;;;;11.80;99.90;;;;;;5091101;28;19919;-70
2023/01/07 03:46:57;;;;;;;;;;;11.80;99.90;;;;;;5082724;28;20286;-68
2023/01/07 03:49:23;;;;;;;;;;;11.70;99.90;;;;;;5086080;28;19912;-68
2023/01/07 03:51:49;;;;;;;;;;;11.70;99.90;;;;;;5095044;28;20438;-68
2023/01/07 03:54:14;;;;;;;;;;;11.80;99.90;;;;;;5099578;28;19923;-69
2023/01/07 03:56:40;;;;;;;;;;;11.80;99.90;;;;;;5108057;28;19915;-68
2023/01/07 03:59:05;;;;;;;;;;;11.80;99.90;;;;;;5101261;28;19912;-67
2023/01/07 04:01:31;;;;;;;;;;;11.80;99.90;;;;;;5102833;28;19998;-68
2023/01/07 04:03:56;;;;;;;;;;;11.80;99.90;;;;;;5094109;28;19923;-69
2023/01/07 04:06:22;;;;;;;;;;;11.80;99.90;;;;;;5105907;28;19926;-69
2023/01/07 04:08:48;;;;;;;;;;;11.90;99.90;;;;;;5098343;28;19984;-65
2023/01/07 04:11:13;;;;;;;;;;;11.90;99.90;;;;;;5102189;28;19912;-69
2023/01/07 04:13:39;;;;;;;;;;;11.80;99.90;;;;;;5091128;28;19999;-67
2023/01/07 04:16:04;;;;;;;;;;;11.80;99.90;;;;;;5085321;28;20380;-68
2023/01/07 04:18:30;;;;;;;;;;;11.80;99.90;;;;;;5108135;28;19920;-66
2023/01/07 04:20:55;;;;;;;;;;;11.80;99.90;;;;;;5097104;28;19923;-67
2023/01/07 04:23:21;;;;;;;;;;;11.80;99.90;;;;;;5110701;28;20002;-68
2023/01/07 04:25:47;;;;;;;;;;;11.80;99.90;;;;;;5101774;28;19919;-68
2023/01/07 04:28:13;;;;;;;;;;;11.80;99.90;;;;;;5103671;28;19912;-69
2023/01/07 04:30:38;;;;;;;;;;;11.80;99.90;;;;;;5096553;28;19958;-67
2023/01/07 04:33:05;;;;;;;;;;;11.80;99.90;;;;;;5098821;28;19989;-67
2023/01/07 04:35:31;;;;;;;;;;;11.80;99.90;;;;;;5097943;28;20052;-67
2023/01/07 04:37:56;;;;;;;;;;;11.80;99.90;;;;;;5083268;28;19967;-67
2023/01/07 04:40:22;;;;;;;;;;;11.80;99.90;;;;;;5091698;28;19978;-67
2023/01/07 04:42:48;;;;;;;;;;;11.80;99.90;;;;;;5093966;28;19919;-69
2023/01/07 04:45:13;;;;;;;;;;;11.80;99.90;;;;;;5094226;28;19943;-67
2023/01/07 04:47:39;;;;;;;;;;;11.80;99.90;;;;;;5107492;28;20277;-67
2023/01/07 04:50:05;;;;;;;;;;;11.70;99.90;;;;;;5112415;28;19964;-67
2023/01/07 04:52:30;;;;;;;;;;;11.70;99.90;;;;;;5111496;28;19907;-68
2023/01/07 04:54:56;;;;;;;;;;;11.80;99.90;;;;;;5085286;28;19916;-68
2023/01/07 04:57:22;;;;;;;;;;;11.70;99.90;;;;;;5092889;28;19999;-67
2023/01/07 04:59:47;;;;;;;;;;;11.70;99.90;;;;;;5057682;28;19970;-67
2023/01/07 05:02:13;;;;;;;;;;;11.70;99.90;;;;;;5085640;28;19912;-67
2023/01/07 05:04:38;;;;;;;;;;;11.70;99.90;;;;;;5100153;28;20622;-68
2023/01/07 05:07:04;;;;;;;;;;;11.70;99.90;;;;;;5111889;28;19919;-69
2023/01/07 05:09:32;;;;;;;;;;;11.60;99.90;;;;;;5099628;28;20027;-67
2023/01/07 05:11:58;;;;;;;;;;;11.50;99.90;;;;;;5103276;28;20007;-67
2023/01/07 05:14:23;;;;;;;;;;;11.60;99.90;;;;;;5084605;28;20008;-69
2023/01/07 05:16:49;;;;;;;;;;;11.50;99.90;;;;;;5099059;28;20019;-68
2023/01/07 05:19:14;;;;;;;;;;;11.50;99.90;;;;;;5091617;28;19912;-67
2023/01/07 05:21:40;;;;;;;;;;;11.50;99.90;;;;;;5091860;28;19995;-67
2023/01/07 05:24:05;;;;;;;;;;;11.50;99.90;;;;;;5091739;28;19908;-68
2023/01/07 05:26:31;;;;;;;;;;;11.50;99.90;;;;;;5069384;28;20002;-68
2023/01/07 05:28:56;;;;;;;;;;;11.50;99.90;;;;;;5091330;28;19935;-67
2023/01/07 05:31:22;;;;;;;;;;;11.50;99.90;;;;;;5091614;28;20003;-68
2023/01/07 05:33:48;;;;;;;;;;;11.50;99.90;;;;;;5092076;28;19915;-68
2023/01/07 05:36:13;;;;;;;;;;;11.50;99.90;;;;;;5090856;28;19970;-66
2023/01/07 05:38:39;;;;;;;;;;;11.40;99.90;;;;;;5089711;28;19928;-68
2023/01/07 05:41:04;;;;;;;;;;;11.40;99.90;;;;;;5097251;28;20288;-68
2023/01/07 05:43:30;;;;;;;;;;;11.40;99.90;;;;;;5096351;28;19912;-65
2023/01/07 05:45:57;;;;;;;;;;;11.40;99.90;;;;;;5070838;28;19919;-67
2023/01/07 05:48:23;;;;;;;;;;;11.40;99.90;;;;;;5077598;28;19908;-69
2023/01/07 05:50:49;;;;;;;;;;;11.50;99.90;;;;;;5089819;28;19935;-67
2023/01/07 05:53:15;;;;;;;;;;;11.50;99.90;;;;;;5070717;28;19908;-66
2023/01/07 05:55:40;;;;;;;;;;;11.40;99.90;;;;;;5085259;28;19912;-67
2023/01/07 05:58:06;;;;;;;;;;;11.40;99.90;;;;;;5090348;28;19958;-68
2023/01/07 06:00:32;;;;;;;;;;;11.40;99.90;;;;;;5090240;28;19912;-67
2023/01/07 06:02:57;;;;;;;;;;;11.40;99.90;;;;;;5080224;28;20035;-66
2023/01/07 06:05:23;;;;;;;;;;;11.40;99.90;;;;;;5097836;28;19941;-66
2023/01/07 06:07:48;;;;;;;;;;;11.40;99.90;;;;;;5094403;28;20369;-69
2023/01/07 06:10:14;;;;;;;;;;;11.40;99.90;;;;;;5090000;28;20369;-67
2023/01/07 06:12:40;;;;;;;;;;;11.40;99.90;;;;;;5067118;28;19968;-66
2023/01/07 06:15:06;;;;;;;;;;;11.40;99.90;;;;;;5086537;28;19959;-67
2023/01/07 06:17:32;;;;;;;;;;;11.40;99.90;;;;;;5109227;28;20373;-67
2023/01/07 06:19:57;;;;;;;;;;;11.40;99.90;;;;;;5110616;28;19960;-68
2023/01/07 06:22:23;;;;;;;;;;;11.50;99.90;;;;;;5110665;28;19908;-68
2023/01/07 06:24:48;;;;;;;;;;;11.40;99.90;;;;;;5100600;28;20381;-66
2023/01/07 06:27:14;;;;;;;;;;;11.30;99.90;;;;;;5097492;28;20033;-66
2023/01/07 06:29:39;;;;;;;;;;;11.30;99.90;;;;;;5096446;28;19912;-68
2023/01/07 06:32:05;;;;;;;;;;;11.30;99.90;;;;;;5105930;28;19969;-68
2023/01/07 06:34:31;;;;;;;;;;;11.40;99.90;;;;;;5086728;28;19934;-68
2023/01/07 06:36:56;;;;;;;;;;;11.30;99.90;;;;;;5094485;28;19923;-67
2023/01/07 06:39:22;;;;;;;;;;;11.40;99.90;;;;;;5104328;28;19916;-70
2023/01/07 06:41:47;;;;;;;;;;;11.40;99.90;;;;;;5096147;28;19927;-67
2023/01/07 06:44:13;;;;;;;;;;;11.30;99.90;;;;;;5101902;28;19951;-69
2023/01/07 06:46:39;;;;;;;;;;;11.30;99.90;;;;;;5099944;28;19913;-68
2023/01/07 06:49:04;;;;;;;;;;;11.30;99.90;;;;;;5087810;28;20336;-67
2023/01/07 06:51:30;;;;;;;;;;;11.30;99.90;;;;;;5096865;28;20299;-67
2023/01/07 06:53:55;;;;;;;;;;;11.30;99.90;;;;;;5108804;28;20357;-69
2023/01/07 06:56:21;;;;;;;;;;;11.20;99.90;;;;;;5109678;28;20468;-68
2023/01/07 06:58:46;;;;;;;;;;;11.30;99.90;;;;;;5108682;28;19973;-68
2023/01/07 07:01:12;;;;;;;;;;;11.30;99.90;;;;;;5110514;28;19908;-66
2023/01/07 07:03:37;;;;;;;;;;;11.30;99.90;;;;;;5085941;28;20365;-66
2023/01/07 07:06:03;;;;;;;;;;;11.20;99.90;;;;;;5102066;28;20041;-67
2023/01/07 07:08:29;;;;;;;;;;;11.20;99.90;;;;;;5089716;28;19915;-69
2023/01/07 07:10:54;;;;;;;;;;;11.30;99.90;;;;;;5088180;28;19931;-68
2023/01/07 07:13:20;;;;;;;;;;;11.30;99.90;;;;;;5093823;28;19912;-68
2023/01/07 07:15:49;;;;;;;;;;;11.30;99.90;;;;;;5090128;28;20401;-68
2023/01/07 07:18:15;;;;;;;;;;;11.30;99.90;;;;;;5101649;28;20365;-70
2023/01/07 07:20:40;;;;;;;;;;;11.40;99.90;;;;;;5100421;28;20309;-67
2023/01/07 07:23:06;;;;;;;;;;;11.40;99.90;;;;;;5089550;28;19919;-67
2023/01/07 07:25:32;;;;;;;;;;;11.30;99.90;;;;;;5068787;28;19912;-67
2023/01/07 07:27:57;;;;;;;;;;;11.40;99.90;;;;;;5091381;28;19995;-67
2023/01/07 07:30:23;;;;;;;;;;;11.40;99.90;;;;;;5103061;28;20014;-68
2023/01/07 07:32:48;;;;;;;;;;;11.30;99.90;;;;;;5084339;28;20374;-68
2023/01/07 07:35:14;;;;;;;;;;;11.30;99.90;;;;;;5103571;28;19942;-68
2023/01/07 07:37:39;;;;;;;;;;;11.30;99.90;;;;;;5108258;28;19915;-67
2023/01/07 07:40:06;;;;;;;;;;;11.40;99.90;;;;;;5114099;28;20002;-67
2023/01/07 07:42:31;;;;;;;;;;;11.40;99.90;;;;;;5110126;28;19908;-67
2023/01/07 07:44:57;;;;;;;;;;;11.40;99.90;;;;;;5082485;28;19912;-66
2023/01/07 07:47:22;;;;;;;;;;;11.40;99.90;;;;;;5112351;28;19908;-67
2023/01/07 07:49:49;;;;;;;;;;;11.40;99.90;;;;;;5094552;28;19912;-68
2023/01/07 07:52:15;;;;;;;;;;;11.40;99.90;;;;;;5086604;28;19912;-68
2023/01/07 07:54:41;;;;;;;;;;;11.30;99.90;;;;;;5091060;28;19924;-68
2023/01/07 07:57:07;;;;;;;;;;;11.30;99.90;;;;;;5107769;28;19916;-67
2023/01/07 07:59:32;;;;;;;;;;;11.30;99.90;;;;;;5087587;28;19912;-67
2023/01/07 08:01:58;;;;;;;;;;;11.30;99.90;;;;;;5101327;28;20001;-68
2023/01/07 08:04:23;;;;;;;;;;;11.30;99.90;;;;;;5105219;28;19997;-68
2023/01/07 08:06:49;;;;;;;;;;;11.40;99.90;;;;;;5103063;28;19997;-68
2023/01/07 08:09:15;;;;;;;;;;;11.40;99.90;;;;;;5103506;28;19912;-68
2023/01/07 08:11:40;;;;;;;;;;;11.50;99.90;;;;;;5108808;28;19924;-68
2023/01/07 08:14:06;;;;;;;;;;;11.40;99.90;;;;;;5084013;28;19935;-67
2023/01/07 08:16:31;;;;;;;;;;;11.50;99.90;;;;;;5092957;28;19922;-65
2023/01/07 08:18:57;;;;;;;;;;;11.50;99.90;;;;;;5095255;28;19912;-67
2023/01/07 08:21:22;;;;;;;;;;;11.40;99.90;;;;;;5113485;28;19954;-65
2023/01/07 08:23:48;;;;;;;;;;;11.40;99.90;;;;;;5105386;28;19912;-66
2023/01/07 08:26:14;;;;;;;;;;;11.40;99.90;;;;;;5088220;28;20011;-66
2023/01/07 08:28:39;;;;;;;;;;;11.40;99.90;;;;;;5100515;28;20365;-66
2023/01/07 08:31:06;;;;;;;;;;;11.40;99.90;;;;;;5091253;28;19967;-66
2023/01/07 08:33:36;;;;;;;;;;;11.30;99.90;;;;;;5106839;28;20007;-67
2023/01/07 08:36:06;;;;;;;;;;;11.30;99.90;;;;;;5077200;28;21629;-66
2023/01/07 08:38:31;;;;;;;;;;;11.40;99.90;;;;;;5098691;28;19945;-65
2023/01/07 08:40:57;;;;;;;;;;;11.40;99.90;;;;;;5104003;28;20017;-66
2023/01/07 08:43:23;;;;;;;;;;;11.40;99.90;;;;;;5107697;28;19919;-62
2023/01/07 08:45:49;;;;;;;;;;;11.40;99.90;;;;;;5098561;28;20037;-63
2023/01/07 08:48:15;;;;;;;;;;;11.40;99.90;;;;;;5095293;28;20089;-64
2023/01/07 08:50:40;;;;;;;;;;;11.40;99.90;;;;;;5088942;28;19959;-65
2023/01/07 08:53:06;;;;;;;;;;;11.40;99.90;;;;;;5110583;28;20422;-67
2023/01/07 08:55:31;;;;;;;;;;;11.40;99.90;;;;;;5101520;28;19918;-69
2023/01/07 08:57:57;;;;;;;;;;;11.40;99.90;;;;;;5105668;28;20277;-67
2023/01/07 09:00:23;;;;;;;;;;;11.40;99.90;;;;;;5107825;28;20053;-68
2023/01/07 09:02:48;;;;;;;;;;;11.30;99.90;;;;;;5104898;28;19916;-66
2023/01/07 09:05:14;;;;;;;;;;;11.40;99.90;;;;;;5094217;28;20308;-66
2023/01/07 09:07:40;;;;;;;;;;;11.40;99.90;;;;;;5091134;28;19908;-66
2023/01/07 09:10:06;;;;;;;;;;;11.50;99.90;;;;;;5092272;28;19998;-67
2023/01/07 09:12:31;;;;;;;;;;;11.60;99.90;;;;;;5101889;28;20141;-67
2023/01/07 09:14:57;;;;;;;;;;;11.60;99.90;;;;;;5097881;28;19912;-67
2023/01/07 09:17:22;;;;;;;;;;;11.70;99.90;;;;;;5090291;28;19966;-67
2023/01/07 09:19:48;;;;;;;;;;;11.60;99.90;;;;;;5112025;28;20002;-67
2023/01/07 09:22:14;;;;;;;;;;;11.60;99.90;;;;;;5111787;28;19918;-67
2023/01/07 09:24:39;;;;;;;;;;;11.60;99.90;;;;;;5097375;28;19951;-65
2023/01/07 09:27:05;;;;;;;;;;;11.70;99.90;;;;;;5097124;28;19921;-66
2023/01/07 09:29:30;;;;;;;;;;;11.70;99.90;;;;;;5105086;28;19963;-66
2023/01/07 09:31:56;;;;;;;;;;;11.70;99.90;;;;;;5094173;28;19974;-66
2023/01/07 09:34:22;;;;;;;;;;;11.70;99.90;;;;;;5096307;28;20413;-65
2023/01/07 09:36:47;;;;;;;;;;;11.70;99.90;;;;;;5106377;28;19924;-65
2023/01/07 09:39:13;;;;;;;;;;;11.70;99.90;;;;;;5090647;28;20352;-66
2023/01/07 09:41:41;;;;;;;;;;;11.60;99.90;;;;;;5091165;28;19977;-66
2023/01/07 09:44:27;;;;;;;;;;;11.60;99.90;;;;;;5084120;28;20327;-67
2023/01/07 09:46:54;;;;;;;;;;;11.80;99.90;;;;;;5067426;28;19957;-67
2023/01/07 09:49:21;;;;;;;;;;;11.70;99.90;;;;;;5083429;28;19908;-66
2023/01/07 09:51:52;;;;;;;;;;;11.70;99.90;;;;;;5088858;28;20015;-68
2023/01/07 09:54:29;;;;;;;;;;;11.70;99.90;;;;;;5086743;28;20284;-66
2023/01/07 09:56:54;;;;;;;;;;;11.70;99.90;;;;;;5090814;28;19920;-65
2023/01/07 09:59:20;;;;;;;;;;;11.70;99.90;;;;;;5090996;28;20286;-67
2023/01/07 10:01:55;;;;;;;;;;;11.80;99.90;;;;;;5094625;28;19921;-66
2023/01/07 10:04:23;;;;;;;;;;;11.80;99.90;;;;;;5092494;28;19969;-67
2023/01/07 10:06:58;;;;;;;;;;;11.70;99.90;;;;;;5095437;28;19922;-66
2023/01/07 10:09:44;;;;;;;;;;;11.70;99.90;;;;;;5111159;28;19915;-66
2023/01/07 10:12:12;;;;;;;;;;;11.80;99.90;;;;;;5097713;28;20544;-67
2023/01/07 10:14:57;;;;;;;;;;;11.80;99.90;;;;;;5111105;28;19907;-67
2023/01/07 10:17:49;;;;;;;;;;;11.70;99.90;;;;;;5086612;28;19916;-68
2023/01/07 10:20:21;;;;;;;;;;;11.80;99.90;;;;;;5060623;28;20402;-68
2023/01/07 10:22:52;;;;;;;;;;;11.80;99.90;;;;;;5090993;28;19908;-68
2023/01/07 10:25:23;;;;;;;;;;;11.80;99.90;;;;;;5090717;28;20192;-67
2023/01/07 10:27:50;;;;;;;;;;;11.70;99.90;;;;;;5097495;28;19918;-68
2023/01/07 10:30:20;;;;;;;;;;;11.80;99.90;;;;;;5098735;28;19916;-67
2023/01/07 10:32:48;;;;;;;;;;;11.70;99.90;;;;;;5090595;28;19908;-67
2023/01/07 10:35:17;;;;;;;;;;;11.80;99.90;;;;;;5091581;28;19912;-67
2023/01/07 10:37:43;;;;;;;;;;;11.70;99.90;;;;;;5099076;28;19916;-67
2023/01/07 10:40:12;;;;;;;;;;;11.70;99.90;;;;;;5104617;28;20014;-68
2023/01/07 10:42:47;;;;;;;;;;;11.60;99.90;;;;;;5108567;28;20381;-67
2023/01/07 10:45:18;;;;;;;;;;;11.60;99.90;;;;;;5090025;28;19959;-68
2023/01/07 10:48:03;;;;;;;;;;;11.60;99.90;;;;;;5080200;28;19915;-69
2023/01/07 10:50:28;;;;;;;;;;;11.60;99.90;;;;;;5092407;28;19908;-68
2023/01/07 10:52:54;;;;;;;;;;;11.60;99.90;;;;;;5106007;28;20430;-69
2023/01/07 10:55:36;;;;;;;;;;;11.60;99.90;;;;;;5088236;28;20347;-63
2023/01/07 10:58:02;;;;;;;;;;;11.60;99.90;;;;;;5094115;28;20362;-65
2023/01/07 11:00:28;;;;;;;;;;;11.60;99.90;;;;;;5111104;28;20002;-63
2023/01/07 11:02:56;;;;;;;;;;;11.60;99.90;;;;;;5112318;28;19994;-63
2023/01/07 11:05:24;;;;;;;;;;;11.60;99.90;;;;;;5106217;28;19965;-63
2023/01/07 11:07:52;;;;;;;;;;;11.60;99.90;;;;;;5101155;28;19912;-63
2023/01/07 11:10:23;;;;;;;;;;;11.60;99.90;;;;;;5097699;28;19912;-64
2023/01/07 11:12:50;;;;;;;;;;;11.60;99.90;;;;;;5102141;28;19919;-64
2023/01/07 11:15:24;;;;;;;;;;;11.50;99.90;;;;;;5089288;28;19919;-64
2023/01/07 11:17:59;;;;;;;;;;;11.50;99.90;;;;;;5070120;28;19917;-64
2023/01/07 11:21:00;;;;;;;;;;;11.50;99.90;;;;;;5098602;28;19919;-65
2023/01/07 11:23:35;;;;;;;;;;;11.60;99.90;;;;;;5038714;28;19929;-64
2023/01/07 11:26:24;;;;;;;;;;;11.60;99.90;;;;;;5066731;28;20018;-64
2023/01/07 11:28:54;;;;;;;;;;;11.50;99.90;;;;;;5089825;28;20243;-64
2023/01/07 11:31:21;;;;;;;;;;;11.60;99.90;;;;;;5104562;28;19907;-63
2023/01/07 11:33:49;;;;;;;;;;;11.60;99.90;;;;;;5102532;28;19912;-65
2023/01/07 11:36:15;;;;;;;;;;;11.60;99.90;;;;;;5107938;28;20480;-65
2023/01/07 11:38:40;;;;;;;;;;;11.60;99.90;;;;;;5095002;28;19927;-65
2023/01/07 11:41:18;;;;;;;;;;;11.60;99.90;;;;;;5089774;28;19908;-65
2023/01/07 11:43:47;;;;;;;;;;;11.70;99.90;;;;;;5091549;28;19908;-65
2023/01/07 11:46:13;;;;;;;;;;;11.80;99.90;;;;;;5094670;28;19912;-65
2023/01/07 11:48:45;;;;;;;;;;;11.70;99.90;;;;;;5103836;28;20304;-64
2023/01/07 11:51:11;;;;;;;;;;;11.80;99.90;;;;;;5083223;28;19913;-63
2023/01/07 11:53:38;;;;;;;;;;;11.80;99.90;;;;;;5087379;28;19956;-64
2023/01/07 11:56:05;;;;;;;;;;;11.80;99.90;;;;;;5086150;28;19920;-64
2023/01/07 11:58:35;;;;;;;;;;;11.70;99.90;;;;;;5105681;28;20332;-64
2023/01/07 12:01:10;;;;;;;;;;;11.80;99.90;;;;;;5084420;28;20377;-64
2023/01/07 12:03:38;;;;;;;;;;;11.80;99.90;;;;;;5089920;28;19912;-63
2023/01/07 12:06:10;;;;;;;;;;;11.70;99.90;;;;;;5091088;28;19980;-64
2023/01/07 12:08:36;;;;;;;;;;;11.80;99.90;;;;;;5098465;28;19912;-64
2023/01/07 12:11:07;;;;;;;;;;;11.80;99.90;;;;;;5090136;28;19915;-64
2023/01/07 12:13:34;;;;;;;;;;;11.80;99.90;;;;;;5089133;28;20432;-65
2023/01/07 12:16:00;;;;;;;;;;;11.90;99.90;;;;;;5100055;28;19912;-65
2023/01/07 12:18:29;;;;;;;;;;;11.90;99.90;;;;;;5090521;28;19908;-64
2023/01/07 12:21:13;;;;;;;;;;;12.00;99.90;;;;;;5089063;28;19920;-65
2023/01/07 12:23:57;;;;;;;;;;;11.90;99.90;;;;;;5094293;28;19934;-65
2023/01/07 12:26:25;;;;;;;;;;;12.00;99.90;;;;;;5097274;28;19926;-64
2023/01/07 12:28:59;;;;;;;;;;;12.00;99.90;;;;;;5114041;28;20361;-65
2023/01/07 12:31:37;;;;;;;;;;;12.00;99.90;;;;;;5108622;28;19919;-65
2023/01/07 12:34:06;;;;;;;;;;;12.10;99.90;;;;;;5096329;28;19967;-64
2023/01/07 12:36:35;;;;;;;;;;;12.10;99.90;;;;;;5096926;28;19930;-64
2023/01/07 12:39:03;;;;;;;;;;;12.10;99.90;;;;;;5087547;28;20006;-63
2023/01/07 12:41:35;;;;;;;;;;;12.10;99.90;;;;;;5098170;28;19913;-64
2023/01/07 12:44:03;;;;;;;;;;;12.20;99.90;;;;;;5090991;28;19975;-64
2023/01/07 12:46:51;;;;;;;;;;;12.20;99.90;;;;;;5089037;28;20367;-66
2023/01/07 12:49:43;;;;;;;;;;;12.20;99.90;;;;;;5096852;28;20328;-63
2023/01/07 12:52:13;;;;;;;;;;;12.30;99.90;;;;;;5098493;28;19927;-64
2023/01/07 12:54:39;;;;;;;;;;;12.30;99.90;;;;;;5087295;28;19933;-64
2023/01/07 12:57:16;;;;;;;;;;;12.30;99.90;;;;;;5089024;28;20039;-68
2023/01/07 12:59:45;;;;;;;;;;;12.30;99.90;;;;;;5104273;28;19920;-64
2023/01/07 13:02:10;;;;;;;;;;;12.30;99.90;;;;;;5095643;28;19910;-67
2023/01/07 13:04:48;;;;;;;;;;;12.40;99.90;;;;;;5090738;28;19916;-63
2023/01/07 13:07:18;;;;;;;;;;;12.40;99.90;;;;;;5096655;28;20054;-63
2023/01/07 13:10:06;;;;;;;;;;;12.40;99.90;;;;;;5068165;28;20486;-65
2023/01/07 13:12:47;;;;;;;;;;;12.40;99.90;;;;;;5099197;28;19912;-67
2023/01/07 13:15:26;;;;;;;;;;;12.40;99.90;;;;;;5085335;28;20056;-66
2023/01/07 13:17:53;;;;;;;;;;;12.40;99.90;;;;;;5085718;28;20011;-66
2023/01/07 13:20:30;;;;;;;;;;;12.50;99.90;;;;;;5088085;28;19916;-64
2023/01/07 13:22:56;;;;;;;;;;;12.40;99.90;;;;;;5091875;28;20030;-66
2023/01/07 13:25:28;;;;;;;;;;;12.30;99.90;;;;;;5090180;28;20007;-67
2023/01/07 13:28:12;;;;;;;;;;;12.30;99.90;;;;;;5083842;28;20339;-65
2023/01/07 13:30:58;;;;;;;;;;;12.20;99.90;;;;;;5089162;28;19912;-66
2023/01/07 13:33:27;;;;;;;;;;;12.20;99.90;;;;;;5088322;28;19999;-65
2023/01/07 13:36:05;;;;;;;;;;;12.10;99.90;;;;;;5091120;28;19986;-67
2023/01/07 13:38:54;;;;;;;;;;;12.10;99.90;;;;;;5093818;28;19923;-65
2023/01/07 13:41:22;;;;;;;;;;;12.00;99.90;;;;;;5089280;28;20457;-66
2023/01/07 13:44:07;;;;;;;;;;;11.90;99.90;;;;;;5110470;28;19915;-63
2023/01/07 13:46:37;;;;;;;;;;;11.90;99.90;;;;;;5102467;28;19918;-67
2023/01/07 13:49:03;;;;;;;;;;;11.80;99.90;;;;;;5096474;28;20572;-67
2023/01/07 13:51:30;;;;;;;;;;;11.80;99.90;;;;;;5100749;28;20391;-64
2023/01/07 13:53:56;;;;;;;;;;;11.80;99.90;;;;;;5091037;28;19922;-64
2023/01/07 13:56:22;;;;;;;;;;;12.00;99.90;;;;;;5093906;28;19916;-63
2023/01/07 13:58:47;;;;;;;;;;;12.00;99.90;;;;;;5099982;28;19916;-65
2023/01/07 14:01:14;;;;;;;;;;;12.00;99.90;;;;;;5094234;28;20029;-64
2023/01/07 14:03:48;;;;;;;;;;;11.90;99.90;;;;;;5073386;28;19915;-65
2023/01/07 14:06:17;;;;;;;;;;;11.90;99.90;;;;;;5068354;28;19962;-66
2023/01/07 14:08:43;;;;;;;;;;;11.80;99.90;;;;;;5101428;28;20294;-64
2023/01/07 14:11:08;;;;;;;;;;;11.80;99.90;;;;;;5091066;28;20325;-64
2023/01/07 14:13:40;;;;;;;;;;;11.70;99.90;;;;;;5101603;28;19916;-63
2023/01/07 14:16:38;;;;;;;;;;;11.80;99.90;;;;;;5095050;28;19958;-65
2023/01/07 14:19:22;;;;;;;;;;;11.80;99.90;;;;;;5053823;28;19985;-67
2023/01/07 14:21:56;;;;;;;;;;;11.80;99.90;;;;;;5100045;28;19912;-66
2023/01/07 14:24:38;;;;;;;;;;;11.80;99.90;;;;;;5094621;28;20011;-66
2023/01/07 14:27:18;;;;;;;;;;;11.80;99.90;;;;;;5092438;28;19916;-66
2023/01/07 14:29:47;;;;;;;;;;;11.70;99.90;;;;;;5095173;28;20378;-66